createdAt,value
2017-08-11T00:01:07.485Z,10.40
2017-08-11T00:06:44.110Z,14.93
2017-08-11T00:09:11.374Z,13.13
2017-08-11T00:11:41.272Z,12.45
2017-08-11T00:14:08.047Z,13.55
2017-08-11T00:16:38.747Z,14.27
2017-08-11T00:19:29.083Z,14.98
2017-08-11T00:22:30.906Z,11.20
2017-08-11T00:25:03.124Z,15.75
2017-08-11T00:27:53.451Z,10.63
2017-08-11T00:30:29.545Z,14.25
2017-08-11T00:33:00.531Z,14.75
2017-08-11T00:35:27.388Z,15.40
2017-08-11T00:37:56.054Z,11.25
2017-08-11T00:40:48.480Z,11.15
2017-08-11T00:43:25.370Z,12.23
2017-08-11T00:45:54.701Z,14.60
2017-08-11T00:48:24.408Z,17.48
2017-08-11T00:51:23.386Z,16.02
2017-08-11T00:54:25.432Z,12.07
2017-08-11T00:56:57.295Z,13.18
2017-08-11T00:59:41.656Z,15.85
2017-08-11T01:05:16.437Z,14.25
2017-08-11T01:07:43.933Z,15.68
2017-08-11T01:10:13.720Z,14.13
2017-08-11T01:12:57.645Z,18.77
2017-08-11T01:15:25.315Z,15.65
2017-08-11T01:17:56.116Z,16.33
2017-08-11T01:20:55.032Z,11.55
2017-08-11T01:23:35.016Z,13.65
2017-08-11T01:26:16.300Z,13.98
2017-08-11T01:29:00.174Z,11.15
2017-08-11T01:31:44.689Z,17.37
2017-08-11T01:34:11.747Z,14.20
2017-08-11T01:36:41.983Z,13.30
2017-08-11T01:39:09.612Z,14.95
2017-08-11T01:41:36.344Z,15.80
2017-08-11T01:44:06.381Z,18.42
2017-08-11T01:46:36.057Z,13.25
2017-08-11T01:49:09.669Z,15.25
2017-08-11T01:51:40.232Z,17.80
2017-08-11T01:54:07.152Z,17.02
2017-08-11T01:56:36.654Z,16.98
2017-08-11T01:59:03.364Z,12.07
2017-08-11T02:01:30.080Z,17.65
2017-08-11T02:04:05.593Z,18.23
2017-08-11T02:06:33.324Z,16.30
2017-08-11T02:09:02.464Z,17.40
2017-08-11T02:11:31.328Z,16.55
2017-08-11T02:13:59.838Z,17.55
2017-08-11T02:16:28.236Z,17.45
2017-08-11T02:18:59.200Z,14.27
2017-08-11T02:21:26.987Z,20.37
2017-08-11T02:23:54.748Z,15.15
2017-08-11T02:26:22.519Z,17.15
2017-08-11T02:28:55.951Z,14.77
2017-08-11T02:31:22.816Z,20.50
2017-08-11T02:33:51.966Z,14.02
2017-08-11T02:36:18.677Z,16.35
2017-08-11T02:38:45.407Z,15.02
2017-08-11T02:41:13.685Z,19.33
2017-08-11T02:43:41.460Z,16.02
2017-08-11T02:46:09.018Z,16.12
2017-08-11T02:48:36.423Z,21.92
2017-08-11T02:51:05.672Z,18.10
2017-08-11T02:53:34.385Z,18.98
2017-08-11T02:56:01.106Z,15.30
2017-08-11T02:58:28.962Z,15.07
2017-08-11T03:00:56.375Z,20.65
2017-08-11T03:03:24.048Z,16.17
2017-08-11T03:05:51.952Z,17.02
2017-08-11T03:08:19.264Z,19.75
2017-08-11T03:10:46.768Z,13.25
2017-08-11T03:13:13.463Z,17.05
2017-08-11T03:15:40.217Z,21.50
2017-08-11T03:18:08.828Z,15.63
2017-08-11T03:20:35.666Z,14.10
2017-08-11T03:23:04.244Z,16.08
2017-08-11T03:25:38.280Z,16.33
2017-08-11T03:28:05.079Z,17.52
2017-08-11T03:30:35.374Z,14.30
2017-08-11T03:33:02.388Z,17.27
2017-08-11T03:35:30.935Z,21.27
2017-08-11T03:37:57.699Z,16.65
2017-08-11T03:40:38.329Z,17.67
2017-08-11T03:43:05.924Z,18.87
2017-08-11T03:48:33.585Z,14.93
2017-08-11T03:51:09.300Z,24.37
2017-08-11T03:53:37.592Z,16.37
2017-08-11T03:56:05.011Z,13.77
2017-08-11T03:58:31.719Z,20.65
2017-08-11T04:01:06.141Z,18.83
2017-08-11T04:03:35.795Z,18.02
2017-08-11T04:06:40.514Z,20.77
2017-08-11T04:09:14.953Z,18.90
2017-08-11T04:12:06.036Z,18.67
2017-08-11T04:14:46.459Z,18.30
2017-08-11T04:17:15.537Z,20.92
2017-08-11T04:19:57.675Z,22.13
2017-08-11T04:26:04.071Z,20.85
2017-08-11T04:31:49.805Z,22.92
2017-08-11T04:34:49.820Z,22.33
2017-08-11T04:37:24.573Z,18.05
2017-08-11T04:40:08.159Z,18.08
2017-08-11T04:42:34.888Z,15.65
2017-08-11T04:45:14.896Z,18.67
2017-08-11T04:51:09.812Z,21.37
2017-08-11T04:56:55.455Z,20.05
2017-08-11T05:02:35.124Z,17.77
2017-08-11T05:08:42.187Z,18.95
2017-08-11T05:11:12.567Z,16.62
2017-08-11T05:32:19.450Z,21.20
2017-08-11T05:44:30.284Z,22.17
2017-08-11T05:47:09.109Z,17.23
2017-08-11T05:50:06.162Z,17.48
2017-08-11T05:52:34.261Z,16.62
2017-08-11T05:55:23.984Z,17.98
2017-08-11T05:58:06.084Z,14.98
2017-08-11T06:00:56.405Z,16.08
2017-08-11T06:04:01.353Z,18.10
2017-08-11T06:06:43.368Z,18.25
2017-08-11T06:09:20.160Z,17.65
2017-08-11T06:11:50.655Z,16.05
2017-08-11T06:14:52.621Z,18.42
2017-08-11T06:17:19.722Z,18.80
2017-08-11T06:20:10.832Z,19.08
2017-08-11T06:22:47.287Z,16.67
2017-08-11T06:29:09.965Z,14.73
2017-08-11T06:34:53.347Z,14.82
2017-08-11T06:37:22.694Z,17.83
2017-08-11T06:39:52.903Z,16.35
2017-08-11T06:42:50.803Z,21.58
2017-08-11T06:45:31.831Z,16.70
2017-08-11T06:51:13.224Z,15.23
2017-08-11T06:54:01.949Z,15.15
2017-08-11T06:56:31.406Z,16.65
2017-08-11T06:59:18.565Z,14.57
2017-08-11T07:02:00.248Z,13.73
2017-08-11T07:04:26.992Z,12.60
2017-08-11T07:06:55.373Z,15.13
2017-08-11T07:09:22.064Z,11.20
2017-08-11T07:11:54.193Z,11.85
2017-08-11T07:14:24.641Z,11.20
2017-08-11T07:16:53.608Z,13.27
2017-08-11T07:19:22.497Z,11.80
2017-08-11T07:21:57.230Z,11.70
2017-08-11T07:24:24.840Z,11.27
2017-08-11T07:26:58.656Z,10.75
2017-08-11T07:42:07.835Z,11.82
2017-08-11T07:44:42.235Z,11.68
2017-08-11T07:53:21.999Z,12.00
2017-08-11T07:56:19.628Z,12.18
2017-08-11T08:51:44.254Z,36.60
2017-08-11T08:54:18.416Z,13.65
2017-08-11T08:57:02.690Z,13.60
2017-08-11T08:59:52.902Z,13.77
2017-08-11T09:05:27.839Z,11.60
2017-08-11T09:08:30.758Z,13.30
2017-08-11T09:11:32.217Z,13.70
2017-08-11T09:14:00.375Z,15.27
2017-08-11T09:17:06.003Z,13.70
2017-08-11T09:20:07.361Z,13.68
2017-08-11T09:25:46.684Z,14.25
2017-08-11T09:37:55.166Z,13.75
2017-08-11T09:40:21.920Z,15.50
2017-08-11T09:42:48.772Z,14.48
2017-08-11T09:45:16.282Z,15.02
2017-08-11T09:47:43.956Z,15.13
2017-08-11T09:50:31.577Z,16.35
2017-08-11T10:05:38.703Z,12.65
2017-08-11T10:08:06.575Z,13.73
2017-08-11T10:29:12.434Z,11.63
2017-08-11T10:34:53.015Z,13.52
2017-08-11T10:37:42.101Z,13.93
2017-08-11T10:52:34.066Z,15.43
2017-08-11T10:55:08.316Z,15.38
2017-08-11T10:57:37.029Z,13.85
2017-08-11T11:00:03.996Z,15.63
2017-08-11T11:02:35.799Z,16.42
2017-08-11T11:05:15.848Z,14.90
2017-08-11T11:08:06.347Z,15.38
2017-08-11T11:13:41.367Z,13.68
2017-08-11T11:28:40.543Z,10.73
2017-08-11T11:31:42.264Z,12.23
2017-08-11T11:34:32.964Z,10.82
2017-08-11T11:37:01.791Z,10.70
2017-08-11T11:55:17.476Z,11.48
2017-08-11T12:01:06.709Z,10.35
2017-08-11T12:03:33.407Z,9.82
2017-08-11T12:06:00.091Z,10.27
2017-08-11T12:08:26.778Z,10.85
2017-08-11T12:10:53.466Z,10.35
2017-08-11T12:13:20.154Z,9.88
2017-08-11T12:15:46.815Z,9.88
2017-08-11T12:18:13.469Z,9.70
2017-08-11T12:20:40.123Z,9.93
2017-08-11T12:23:06.788Z,10.95
2017-08-11T12:25:33.494Z,12.25
2017-08-11T12:28:00.196Z,10.98
2017-08-11T12:30:26.880Z,10.73
2017-08-11T12:32:53.547Z,11.95
2017-08-11T12:35:20.240Z,11.35
2017-08-11T12:37:46.908Z,11.30
2017-08-11T12:40:13.647Z,12.25
2017-08-11T12:42:40.319Z,13.38
2017-08-11T12:45:07.020Z,12.45
2017-08-11T12:47:33.699Z,12.50
2017-08-11T12:50:00.402Z,13.27
2017-08-11T12:52:27.084Z,10.98
2017-08-11T12:54:53.766Z,10.48
2017-08-11T12:57:20.471Z,10.27
2017-08-11T12:59:47.157Z,10.45
2017-08-11T13:02:13.852Z,10.60
2017-08-11T13:04:40.527Z,10.98
2017-08-11T13:07:07.227Z,11.50
2017-08-11T13:09:33.911Z,12.80
2017-08-11T13:12:00.600Z,10.43
2017-08-11T13:14:27.275Z,11.07
2017-08-11T13:16:53.955Z,11.95
2017-08-11T13:19:20.659Z,10.40
2017-08-11T13:21:47.354Z,11.95
2017-08-11T13:24:14.052Z,11.95
2017-08-11T13:26:40.719Z,12.25
2017-08-11T13:29:07.408Z,15.07
2017-08-11T13:31:34.074Z,13.25
2017-08-11T13:34:00.772Z,11.27
2017-08-11T13:36:27.473Z,12.32
2017-08-11T13:38:54.167Z,14.32
2017-08-11T13:41:20.842Z,11.15
2017-08-11T13:43:47.531Z,11.82
2017-08-11T13:46:14.212Z,11.65
2017-08-11T13:48:40.924Z,10.90
2017-08-11T13:51:07.591Z,11.65
2017-08-11T13:53:34.256Z,10.68
2017-08-11T13:56:00.950Z,9.77
2017-08-11T13:58:27.616Z,10.30
2017-08-11T14:00:54.279Z,9.50
2017-08-11T14:03:20.971Z,10.80
2017-08-11T14:05:47.686Z,11.73
2017-08-11T14:08:14.344Z,9.68
2017-08-11T14:10:41.027Z,9.88
2017-08-11T14:13:07.694Z,11.12
2017-08-11T14:15:34.371Z,9.50
2017-08-11T14:18:01.023Z,9.68
2017-08-11T14:20:27.708Z,10.38
2017-08-11T14:22:54.382Z,10.70
2017-08-11T14:25:21.052Z,10.15
2017-08-11T14:27:47.739Z,9.38
2017-08-11T14:30:14.400Z,10.50
2017-08-11T14:32:41.071Z,9.63
2017-08-11T14:35:07.728Z,9.57
2017-08-11T14:37:34.418Z,8.63
2017-08-11T14:40:01.085Z,7.25
2017-08-11T14:42:27.787Z,7.60
2017-08-11T14:44:54.453Z,8.10
2017-08-11T14:47:21.169Z,7.30
2017-08-11T14:49:47.832Z,7.70
2017-08-11T14:52:14.539Z,8.10
2017-08-11T14:54:41.183Z,8.25
2017-08-11T14:57:07.837Z,7.57
2017-08-11T14:59:34.495Z,10.35
2017-08-11T15:02:01.167Z,10.57
2017-08-11T15:04:27.836Z,10.65
2017-08-11T15:06:54.515Z,11.60
2017-08-11T15:09:21.211Z,12.32
2017-08-11T15:11:47.872Z,13.43
2017-08-11T15:14:14.564Z,14.70
2017-08-11T15:16:41.224Z,16.35
2017-08-11T15:19:07.919Z,16.52
2017-08-11T15:21:34.584Z,15.43
2017-08-11T15:24:01.273Z,15.25
2017-08-11T15:26:27.955Z,18.30
2017-08-11T15:28:54.619Z,16.00
2017-08-11T15:31:21.281Z,15.25
2017-08-11T15:33:47.950Z,16.17
2017-08-11T15:36:15.480Z,14.25
2017-08-11T15:38:42.139Z,14.48
2017-08-11T15:41:08.799Z,13.43
2017-08-11T15:43:35.471Z,14.40
2017-08-11T15:46:02.163Z,15.07
2017-08-11T15:48:28.823Z,15.18
2017-08-11T15:50:55.488Z,15.32
2017-08-11T15:53:22.154Z,15.80
2017-08-11T15:55:48.839Z,12.52
2017-08-11T15:58:15.511Z,13.60
2017-08-11T16:00:42.175Z,14.25
2017-08-11T16:03:08.840Z,13.15
2017-08-11T16:05:35.507Z,13.88
2017-08-11T16:08:02.168Z,13.65
2017-08-11T16:10:28.841Z,16.37
2017-08-11T16:12:55.536Z,13.45
2017-08-11T16:15:22.207Z,21.58
2017-08-11T16:17:48.955Z,13.20
2017-08-11T16:20:15.628Z,16.12
2017-08-11T16:22:42.292Z,14.82
2017-08-11T16:25:09.300Z,16.87
2017-08-11T16:27:35.982Z,15.52
2017-08-11T16:30:03.046Z,22.08
2017-08-11T16:32:29.729Z,14.48
2017-08-11T16:34:56.428Z,14.75
2017-08-11T16:37:23.116Z,17.92
2017-08-11T16:39:49.978Z,13.75
2017-08-11T16:42:16.662Z,14.60
2017-08-11T16:44:43.351Z,14.07
2017-08-11T16:47:10.023Z,14.73
2017-08-11T16:49:36.710Z,20.35
2017-08-11T16:52:03.380Z,14.48
2017-08-11T16:54:30.040Z,14.13
2017-08-11T16:56:56.703Z,13.82
2017-08-11T16:59:23.365Z,12.57
2017-08-11T17:01:50.060Z,14.82
2017-08-11T17:04:16.719Z,12.70
2017-08-11T17:06:43.411Z,14.23
2017-08-11T17:09:10.077Z,21.37
2017-08-11T17:11:36.759Z,14.98
2017-08-11T17:14:03.423Z,13.35
2017-08-11T17:16:30.108Z,13.07
2017-08-11T17:18:56.776Z,12.15
2017-08-11T17:21:23.464Z,14.20
2017-08-11T17:23:50.132Z,11.80
2017-08-11T17:26:16.797Z,12.85
2017-08-11T17:28:43.458Z,11.27
2017-08-11T17:31:10.929Z,17.23
2017-08-11T17:33:37.596Z,13.35
2017-08-11T17:36:04.263Z,16.45
2017-08-11T17:38:30.964Z,11.90
2017-08-11T17:40:57.623Z,12.27
2017-08-11T17:43:24.306Z,22.35
2017-08-11T17:45:51.495Z,10.57
2017-08-11T17:48:18.183Z,12.60
2017-08-11T17:50:44.844Z,12.02
2017-08-11T17:53:11.561Z,12.37
2017-08-11T17:55:38.251Z,10.93
2017-08-11T17:58:04.935Z,9.88
2017-08-11T18:00:31.609Z,10.55
2017-08-11T18:02:58.301Z,9.65
2017-08-11T18:05:24.960Z,11.07
2017-08-11T18:07:51.621Z,10.75
2017-08-11T18:10:18.281Z,12.57
2017-08-11T18:12:44.948Z,12.70
2017-08-11T18:15:11.645Z,10.70
2017-08-11T18:17:38.306Z,12.05
2017-08-11T18:20:04.996Z,13.15
2017-08-11T18:22:31.691Z,10.70
2017-08-11T18:24:58.403Z,14.10
2017-08-11T18:27:25.092Z,10.27
2017-08-11T18:29:51.783Z,10.32
2017-08-11T18:32:18.474Z,10.52
2017-08-11T18:34:45.179Z,9.73
2017-08-11T18:37:11.850Z,11.50
2017-08-11T18:39:38.563Z,15.27
2017-08-11T18:42:05.248Z,12.55
2017-08-11T18:44:31.936Z,13.05
2017-08-11T18:46:58.615Z,15.25
2017-08-11T18:49:25.339Z,9.40
2017-08-11T18:51:52.004Z,9.00
2017-08-11T18:54:18.668Z,10.82
2017-08-11T18:56:45.365Z,11.70
2017-08-11T18:59:12.025Z,10.98
2017-08-11T19:01:38.732Z,11.75
2017-08-11T19:04:05.395Z,10.63
2017-08-11T19:06:32.085Z,9.30
2017-08-11T19:08:58.751Z,9.60
2017-08-11T19:11:25.431Z,9.60
2017-08-11T19:13:52.108Z,12.75
2017-08-11T19:16:18.795Z,11.38
2017-08-11T19:18:45.456Z,8.93
2017-08-11T19:21:12.153Z,10.25
2017-08-11T19:23:38.815Z,9.23
2017-08-11T19:26:05.476Z,10.70
2017-08-11T19:28:32.140Z,10.40
2017-08-11T19:30:58.806Z,8.75
2017-08-11T19:33:25.540Z,9.77
2017-08-11T19:35:52.191Z,9.88
2017-08-11T19:38:18.876Z,11.02
2017-08-11T19:40:45.555Z,8.32
2017-08-11T19:43:12.237Z,8.27
2017-08-11T19:45:38.895Z,10.95
2017-08-11T19:48:05.587Z,10.18
2017-08-11T19:50:32.265Z,8.07
2017-08-11T19:52:58.969Z,9.13
2017-08-11T19:55:25.683Z,12.73
2017-08-11T19:57:52.360Z,9.57
2017-08-11T20:00:19.040Z,17.87
2017-08-11T20:02:45.721Z,8.45
2017-08-11T20:05:12.392Z,8.35
2017-08-11T20:07:39.069Z,8.88
2017-08-11T20:10:05.760Z,10.63
2017-08-11T20:12:32.415Z,9.75
2017-08-11T20:14:59.101Z,9.63
2017-08-11T20:17:25.758Z,9.57
2017-08-11T20:19:52.439Z,9.50
2017-08-11T20:22:19.105Z,10.00
2017-08-11T20:24:45.792Z,9.43
2017-08-11T20:27:12.482Z,14.63
2017-08-11T20:29:39.172Z,10.73
2017-08-11T20:32:05.840Z,11.07
2017-08-11T20:34:32.512Z,11.88
2017-08-11T20:36:59.172Z,12.73
2017-08-11T20:39:25.870Z,13.38
2017-08-11T20:41:52.543Z,11.35
2017-08-11T20:44:19.204Z,14.23
2017-08-11T20:46:45.883Z,12.68
2017-08-11T20:49:12.571Z,17.85
2017-08-11T20:51:39.269Z,17.98
2017-08-11T20:54:05.952Z,14.63
2017-08-11T20:56:32.645Z,15.35
2017-08-11T20:58:59.321Z,16.00
2017-08-11T21:01:26.018Z,14.95
2017-08-11T21:03:52.690Z,17.27
2017-08-11T21:06:19.399Z,16.77
2017-08-11T21:08:46.092Z,21.20
2017-08-11T21:11:12.764Z,24.35
2017-08-11T21:13:39.436Z,22.75
2017-08-11T21:16:06.096Z,23.30
2017-08-11T21:18:32.779Z,28.15
2017-08-11T21:20:59.448Z,26.20
2017-08-11T21:23:26.115Z,26.55
2017-08-11T21:25:52.792Z,25.10
2017-08-11T21:28:19.467Z,25.62
2017-08-11T21:30:46.133Z,22.23
2017-08-11T21:33:12.844Z,23.17
2017-08-11T21:35:39.521Z,21.95
2017-08-11T21:38:06.264Z,19.17
2017-08-11T21:40:32.934Z,20.15
2017-08-11T21:42:59.639Z,18.10
2017-08-11T21:45:26.308Z,21.23
2017-08-11T21:47:53.009Z,19.23
2017-08-11T21:50:19.672Z,23.17
2017-08-11T21:52:46.359Z,21.50
2017-08-11T21:55:13.035Z,23.30
2017-08-11T21:57:39.734Z,22.45
2017-08-11T22:00:06.399Z,25.60
2017-08-11T22:02:33.119Z,24.48
2017-08-11T22:04:59.787Z,24.17
2017-08-11T22:07:26.480Z,29.52
2017-08-11T22:09:53.161Z,29.42
2017-08-11T22:12:19.845Z,25.27
2017-08-11T22:14:46.517Z,28.70
2017-08-11T22:17:13.187Z,30.40
2017-08-11T22:19:39.867Z,28.52
2017-08-11T22:22:06.531Z,30.77
2017-08-11T22:24:33.210Z,31.45
2017-08-11T22:26:59.873Z,39.85
2017-08-11T22:29:26.539Z,30.17
2017-08-11T22:31:53.208Z,30.37
2017-08-11T22:34:19.905Z,27.35
2017-08-11T22:36:46.591Z,35.60
2017-08-11T22:39:13.311Z,31.62
2017-08-11T22:41:39.983Z,31.48
2017-08-11T22:44:06.672Z,32.50
2017-08-11T22:46:33.352Z,26.70
2017-08-11T22:49:00.052Z,31.80
2017-08-11T22:51:26.724Z,28.85
2017-08-11T22:53:53.420Z,25.12
2017-08-11T22:56:20.092Z,21.83
2017-08-11T22:58:46.775Z,16.33
2017-08-11T23:01:13.448Z,18.20
2017-08-11T23:03:40.147Z,18.65
2017-08-11T23:06:06.827Z,16.30
2017-08-11T23:08:33.516Z,16.48
2017-08-11T23:11:00.192Z,19.35
2017-08-11T23:13:26.891Z,18.77
2017-08-11T23:15:53.559Z,19.58
2017-08-11T23:18:20.251Z,20.83
2017-08-11T23:20:46.919Z,18.58
2017-08-11T23:23:13.622Z,17.33
2017-08-11T23:25:40.290Z,16.83
2017-08-11T23:28:06.974Z,19.60
2017-08-11T23:30:33.811Z,21.25
2017-08-11T23:33:00.507Z,23.02
2017-08-11T23:35:27.173Z,20.10
2017-08-11T23:37:53.838Z,23.48
2017-08-11T23:40:20.500Z,24.45
2017-08-11T23:42:47.163Z,27.30
2017-08-11T23:45:13.837Z,24.85
2017-08-11T23:47:40.507Z,21.92
2017-08-11T23:50:07.178Z,24.95
2017-08-11T23:52:33.843Z,23.17
2017-08-11T23:55:00.524Z,18.17
2017-08-11T23:57:27.198Z,17.05
2017-08-11T23:59:53.864Z,14.77
